Time;durP1;ratioP1;P1;durP2;ratioP2;P2;SDS_P1;SDS_P2;PMS_P1;PMS_P2;Temp;Humidity;BMP_temperature;BMP_pressure;BME280_temperature;BME280_humidity;BME280_pressure;Samples;Min_cycle;Max_cycle;Signal;HPM_P1;HPM_P2
2021/04/03 00:00:19;;;;;;;;;;;;;;;4.26;93.65;95937.25;1031638;28;20386;-66
2021/04/03 00:00:50;;;;;;;;;;;;;;;4.24;93.62;95936.66;1027937;28;19910;-66
2021/04/03 00:01:21;;;;;;;;;;;;;;;4.22;93.98;95936.88;1036263;28;19916;-66
2021/04/03 00:01:51;;;;;;;;;;;;;;;4.24;93.87;95936.66;1031741;28;20323;-66
2021/04/03 00:02:21;;;;;;;;;;;;;;;4.22;94.08;95936.88;1031786;28;19914;-67
2021/04/03 00:02:54;;;;;;;;;;;;;;;4.18;94.15;95940.13;1035700;28;20378;-66
2021/04/03 00:03:25;;;;;;;;;;;;;;;4.17;94.64;95938.56;1032103;28;20065;-67
2021/04/03 00:03:56;;;;;;;;;;;;;;;4.14;95.25;95937.19;1031704;28;19946;-66
2021/04/03 00:04:26;;;;;;;;;;;;;;;4.14;95.36;95933.78;1031117;28;19913;-67
2021/04/03 00:04:56;;;;;;;;;;;;;;;4.12;95.21;95941.00;1032087;28;19953;-67
2021/04/03 00:05:27;;;;;;;;;;;;;;;4.10;95.56;95943.03;1035782;28;19919;-67
2021/04/03 00:05:57;;;;;;;;;;;;;;;4.08;95.90;95938.03;1029133;28;19910;-67
2021/04/03 00:06:28;;;;;;;;;;;;;;;4.07;95.91;95940.88;1027581;28;19945;-67
2021/04/03 00:06:58;;;;;;;;;;;;;;;4.06;96.43;95941.84;1027782;28;19985;-66
2021/04/03 00:07:28;;;;;;;;;;;;;;;4.04;96.48;95942.06;1031210;28;19910;-67
2021/04/03 00:07:59;;;;;;;;;;;;;;;4.03;96.77;95942.31;1027680;28;19981;-66
2021/04/03 00:08:29;;;;;;;;;;;;;;;4.00;96.79;95933.94;1030831;28;20437;-67
2021/04/03 00:08:59;;;;;;;;;;;;;;;3.99;97.37;95940.16;1031943;28;19914;-67
2021/04/03 00:09:29;;;;;;;;;;;;;;;3.98;97.54;95935.94;1035426;28;19967;-66
2021/04/03 00:10:00;;;;;;;;;;;;;;;3.92;97.71;95936.81;1035547;28;19944;-65
2021/04/03 00:10:39;;;;;;;;;;;;;;;3.89;98.21;95939.84;1035404;28;20036;-67
2021/04/03 00:11:09;;;;;;;;;;;;;;;3.89;98.23;95939.84;1031436;28;19906;-67
2021/04/03 00:11:40;;;;;;;;;;;;;;;3.87;98.41;95938.47;1030314;28;19902;-66
2021/04/03 00:12:10;;;;;;;;;;;;;;;3.83;98.56;95938.09;1027617;28;19941;-67
2021/04/03 00:12:41;;;;;;;;;;;;;;;3.81;99.04;95944.50;1024510;28;20578;-67
2021/04/03 00:13:11;;;;;;;;;;;;;;;3.78;99.45;95935.34;1035986;28;19941;-67
2021/04/03 00:13:42;;;;;;;;;;;;;;;3.76;99.27;95935.56;1035839;28;20520;-66
2021/04/03 00:14:12;;;;;;;;;;;;;;;3.74;99.73;95934.97;1035823;28;19905;-66
2021/04/03 00:14:42;;;;;;;;;;;;;;;3.71;99.83;95930.22;1039039;28;19921;-67
2021/04/03 00:15:13;;;;;;;;;;;;;;;3.70;100.00;95940.81;1035654;28;19910;-67
2021/04/03 00:15:43;;;;;;;;;;;;;;;3.68;99.89;95935.03;1035697;28;19909;-66
2021/04/03 00:16:14;;;;;;;;;;;;;;;3.66;99.92;95939.66;1038343;28;19901;-66
2021/04/03 00:16:44;;;;;;;;;;;;;;;3.63;100.00;95935.69;1033864;28;20461;-67
2021/04/03 00:17:14;;;;;;;;;;;;;;;3.63;100.00;95938.28;1036057;28;20361;-67
2021/04/03 00:17:44;;;;;;;;;;;;;;;3.63;100.00;95945.28;1031586;28;20296;-66
2021/04/03 00:18:15;;;;;;;;;;;;;;;3.61;100.00;95942.88;1031128;28;20351;-66
2021/04/03 00:18:45;;;;;;;;;;;;;;;3.61;100.00;95939.50;1031290;28;19992;-67
2021/04/03 00:19:16;;;;;;;;;;;;;;;3.61;99.92;95942.09;1027666;28;19918;-67
2021/04/03 00:19:46;;;;;;;;;;;;;;;3.61;99.57;95944.69;1031366;28;19913;-66
2021/04/03 00:20:17;;;;;;;;;;;;;;;3.58;99.61;95937.34;1029348;28;19926;-66
2021/04/03 00:20:47;;;;;;;;;;;;;;;3.56;99.62;95939.38;1027425;28;19914;-67
2021/04/03 00:21:17;;;;;;;;;;;;;;;3.54;99.74;95940.34;1031963;28;19909;-67
2021/04/03 00:21:48;;;;;;;;;;;;;;;3.55;99.52;95941.13;1027174;28;19934;-66
2021/04/03 00:22:18;;;;;;;;;;;;;;;3.56;99.52;95937.56;1031564;28;19910;-67
2021/04/03 00:22:48;;;;;;;;;;;;;;;3.57;98.87;95946.91;1031662;28;19913;-67
2021/04/03 00:23:19;;;;;;;;;;;;;;;3.58;99.25;95939.94;1031637;28;19905;-66
2021/04/03 00:23:49;;;;;;;;;;;;;;;3.57;98.85;95946.13;1034478;28;19901;-67
2021/04/03 00:24:20;;;;;;;;;;;;;;;3.58;98.26;95945.13;1031733;28;19906;-67
2021/04/03 00:24:50;;;;;;;;;;;;;;;3.60;97.91;95948.31;1031387;28;19932;-67
2021/04/03 00:25:21;;;;;;;;;;;;;;;3.59;97.75;95946.69;1031444;28;19909;-66
2021/04/03 00:25:51;;;;;;;;;;;;;;;3.62;97.25;95954.06;1035686;28;19913;-66
2021/04/03 00:26:21;;;;;;;;;;;;;;;3.62;96.88;95947.09;1031528;28;19941;-66
2021/04/03 00:26:52;;;;;;;;;;;;;;;3.63;97.03;95943.47;1035448;28;19914;-66
2021/04/03 00:27:25;;;;;;;;;;;;;;;3.63;96.68;95947.88;1035992;28;19909;-66
2021/04/03 00:27:55;;;;;;;;;;;;;;;3.64;96.42;95950.25;1036139;28;19913;-66
2021/04/03 00:28:25;;;;;;;;;;;;;;;3.63;95.93;95953.06;1034805;28;19928;-66
2021/04/03 00:28:56;;;;;;;;;;;;;;;3.65;96.23;95956.22;1027308;28;19914;-66
2021/04/03 00:29:26;;;;;;;;;;;;;;;3.63;95.95;95953.84;1027870;28;19918;-67
2021/04/03 00:29:56;;;;;;;;;;;;;;;3.63;95.76;95950.47;1031425;28;19952;-66
2021/04/03 00:30:27;;;;;;;;;;;;;;;3.62;95.61;95947.09;1034778;28;19914;-67
2021/04/03 00:30:57;;;;;;;;;;;;;;;3.65;95.37;95954.41;1035661;28;19925;-66
2021/04/03 00:31:27;;;;;;;;;;;;;;;3.64;95.33;95946.88;1037391;28;19941;-66
2021/04/03 00:31:57;;;;;;;;;;;;;;;3.66;95.25;95957.84;1030977;28;19986;-66
2021/04/03 00:32:28;;;;;;;;;;;;;;;3.64;95.38;95955.44;1027969;28;19934;-67
2021/04/03 00:32:58;;;;;;;;;;;;;;;3.64;95.29;95959.84;1026868;28;19914;-66
2021/04/03 00:33:29;;;;;;;;;;;;;;;3.64;95.15;95944.28;1019434;29;19915;-66
2021/04/03 00:33:59;;;;;;;;;;;;;;;3.63;95.18;95953.06;1023431;28;19918;-66
2021/04/03 00:34:29;;;;;;;;;;;;;;;3.63;95.28;95955.66;1031640;28;19936;-67
2021/04/03 00:35:00;;;;;;;;;;;;;;;3.62;95.45;95961.84;1031766;28;19921;-66
2021/04/03 00:35:31;;;;;;;;;;;;;;;3.61;95.22;95955.06;1038129;28;20714;-67
2021/04/03 00:36:01;;;;;;;;;;;;;;;3.60;95.46;95956.09;1031628;28;20410;-66
2021/04/03 00:36:31;;;;;;;;;;;;;;;3.59;95.61;95963.09;1033505;28;19917;-66
2021/04/03 00:37:02;;;;;;;;;;;;;;;3.36;95.81;95932.53;1031525;28;19917;-67
2021/04/03 00:37:32;;;;;;;;;;;;;;;3.59;95.61;95957.06;1027753;28;19934;-66
2021/04/03 00:38:03;;;;;;;;;;;;;;;3.58;95.86;95958.09;1027443;28;20004;-66
2021/04/03 00:38:34;;;;;;;;;;;;;;;3.59;95.80;95962.25;1026934;28;20276;-67
2021/04/03 00:39:04;;;;;;;;;;;;;;;3.57;95.97;95954.72;1031675;28;19922;-67
2021/04/03 00:39:34;;;;;;;;;;;;;;;3.56;96.03;95954.94;1035659;28;19964;-66
2021/04/03 00:40:28;;;;;;;;;;;;;;;3.57;95.98;95959.09;1039546;28;19924;-66
2021/04/03 00:40:58;;;;;;;;;;;;;;;3.54;96.11;95955.91;1028803;28;19992;-66
2021/04/03 00:41:29;;;;;;;;;;;;;;;3.57;96.52;95964.28;1035471;28;19909;-66
2021/04/03 00:42:10;;;;;;;;;;;;;;;3.58;96.38;95960.69;1031327;28;20024;-67
2021/04/03 00:42:41;;;;;;;;;;;;;;;3.57;96.36;95964.28;1028803;28;19921;-67
2021/04/03 00:43:13;;;;;;;;;;;;;;;3.57;96.40;95959.09;1031911;28;20417;-67
2021/04/03 00:43:43;;;;;;;;;;;;;;;3.57;96.43;95961.69;1037851;28;19976;-66
2021/04/03 00:44:14;;;;;;;;;;;;;;;3.58;96.40;95961.47;1044201;28;20341;-67
2021/04/03 00:44:47;;;;;;;;;;;;;;;3.56;96.24;95963.50;1044118;28;19917;-67
2021/04/03 00:45:18;;;;;;;;;;;;;;;3.58;96.54;95963.28;1039167;28;19920;-66
2021/04/03 00:45:48;;;;;;;;;;;;;;;3.57;96.72;95964.28;1031665;28;19941;-67
2021/04/03 00:46:18;;;;;;;;;;;;;;;3.54;96.76;95961.09;1036001;28;19914;-66
2021/04/03 00:46:49;;;;;;;;;;;;;;;3.54;96.58;95960.31;1035421;28;19918;-67
2021/04/03 00:47:19;;;;;;;;;;;;;;;3.56;96.66;95962.72;1037975;28;20055;-66
2021/04/03 00:47:49;;;;;;;;;;;;;;;3.57;96.94;95964.28;1039465;28;19917;-66
2021/04/03 00:48:20;;;;;;;;;;;;;;;3.57;96.90;95961.69;1031022;28;19918;-66
2021/04/03 00:48:50;;;;;;;;;;;;;;;3.55;97.23;95961.91;1035485;28;19984;-67
2021/04/03 00:49:20;;;;;;;;;;;;;;;3.54;97.23;95961.09;1035562;28;19914;-67
2021/04/03 00:49:51;;;;;;;;;;;;;;;3.55;97.35;95961.91;1029496;28;19920;-67
2021/04/03 00:50:24;;;;;;;;;;;;;;;3.53;96.96;95958.75;1023349;29;19962;-67
2021/04/03 00:50:55;;;;;;;;;;;;;;;3.51;97.14;95956.34;1025148;28;20371;-67
2021/04/03 00:51:25;;;;;;;;;;;;;;;3.53;97.38;95956.94;1028817;28;19915;-67
2021/04/03 00:51:56;;;;;;;;;;;;;;;3.54;97.24;95953.31;1032258;28;19975;-66
2021/04/03 00:52:26;;;;;;;;;;;;;;;3.53;97.44;95964.72;1036324;28;20367;-67
2021/04/03 00:52:56;;;;;;;;;;;;;;;3.53;97.53;95967.31;1039865;28;19920;-67
2021/04/03 00:53:27;;;;;;;;;;;;;;;3.53;97.57;95963.94;1043679;28;19909;-67
2021/04/03 00:53:57;;;;;;;;;;;;;;;3.51;97.55;95961.53;1038176;28;19912;-66
2021/04/03 00:54:27;;;;;;;;;;;;;;;3.52;97.50;95967.50;1035368;28;19920;-66
2021/04/03 00:54:58;;;;;;;;;;;;;;;3.54;97.72;95966.28;1027409;28;19926;-66
2021/04/03 00:55:28;;;;;;;;;;;;;;;3.52;97.41;95963.13;1027710;28;19909;-66
2021/04/03 00:55:58;;;;;;;;;;;;;;;3.53;97.22;95969.91;1027213;28;20511;-67
2021/04/03 00:56:29;;;;;;;;;;;;;;;3.54;97.33;95970.69;1027363;28;20296;-66
2021/04/03 00:56:59;;;;;;;;;;;;;;;3.53;97.38;95964.72;1031700;28;20403;-66
2021/04/03 00:57:29;;;;;;;;;;;;;;;3.52;97.34;95973.50;1032854;28;19909;-66
2021/04/03 00:58:00;;;;;;;;;;;;;;;3.51;97.44;95971.13;1035849;28;19959;-67
2021/04/03 00:58:30;;;;;;;;;;;;;;;3.49;97.34;95967.94;1030471;28;20268;-66
2021/04/03 00:59:00;;;;;;;;;;;;;;;3.52;97.45;95968.31;1023121;28;19911;-65
2021/04/03 00:59:31;;;;;;;;;;;;;;;3.49;97.15;95967.94;1027783;28;19906;-66
2021/04/03 01:00:01;;;;;;;;;;;;;;;3.49;97.72;95971.34;1027371;28;19906;-67
2021/04/03 01:00:32;;;;;;;;;;;;;;;3.50;97.34;95970.31;1028815;28;20752;-66
2021/04/03 01:01:02;;;;;;;;;;;;;;;3.47;97.47;95970.75;1035284;28;19991;-66
2021/04/03 01:01:33;;;;;;;;;;;;;;;3.49;97.22;95967.94;1035452;28;19914;-66
2021/04/03 01:02:04;;;;;;;;;;;;;;;3.45;97.94;95972.75;1039677;28;19920;-66
2021/04/03 01:02:34;;;;;;;;;;;;;;;3.47;97.64;95975.94;1031010;28;19910;-66
2021/04/03 01:03:05;;;;;;;;;;;;;;;3.48;97.95;95977.50;1028492;28;19914;-67
2021/04/03 01:03:35;;;;;;;;;;;;;;;3.48;98.10;95974.91;1032708;28;20362;-66
2021/04/03 01:04:06;;;;;;;;;;;;;;;3.45;97.86;95977.94;1036190;28;19909;-67
2021/04/03 01:04:36;;;;;;;;;;;;;;;3.43;97.99;95974.78;1043392;28;20370;-66
2021/04/03 01:05:14;;;;;;;;;;;;;;;3.45;97.86;95977.94;1043969;28;19973;-67
2021/04/03 01:05:44;;;;;;;;;;;;;;;3.45;98.28;95980.53;1045821;28;19904;-66
2021/04/03 01:06:15;;;;;;;;;;;;;;;3.46;98.66;95987.31;1039469;28;19956;-67
2021/04/03 01:06:45;;;;;;;;;;;;;;;3.49;98.07;95978.34;1035257;28;20265;-66
2021/04/03 01:07:15;;;;;;;;;;;;;;;3.48;97.96;95980.09;1035424;28;19909;-67
2021/04/03 01:07:45;;;;;;;;;;;;;;;3.51;98.29;95986.69;1031639;28;19910;-66
2021/04/03 01:08:16;;;;;;;;;;;;;;;3.48;98.09;95980.09;1030575;28;19914;-67
2021/04/03 01:08:46;;;;;;;;;;;;;;;3.47;97.92;95983.72;1034982;28;20024;-67
2021/04/03 01:09:16;;;;;;;;;;;;;;;3.48;97.76;95984.50;1031563;28;19957;-67
2021/04/03 01:09:47;;;;;;;;;;;;;;;3.50;97.67;95980.69;1035354;28;20544;-65
2021/04/03 01:10:18;;;;;;;;;;;;;;;3.40;97.70;95969.22;1035743;28;19909;-67
2021/04/03 01:10:49;;;;;;;;;;;;;;;3.49;97.74;95986.13;1039072;28;19905;-67
2021/04/03 01:11:19;;;;;;;;;;;;;;;3.46;97.47;95984.72;1030128;28;19989;-67
2021/04/03 01:12:02;;;;;;;;;;;;;;;3.45;97.10;95993.50;1032034;28;20371;-66
2021/04/03 01:12:32;;;;;;;;;;;;;;;3.47;97.38;95991.50;1032482;28;19906;-67
2021/04/03 01:13:21;;;;;;;;;;;;;;;3.48;97.15;95993.06;1033011;28;20112;-67
2021/04/03 01:13:51;;;;;;;;;;;;;;;3.49;96.23;95986.13;1031596;28;19936;-66
2021/04/03 01:14:24;;;;;;;;;;;;;;;3.45;95.66;95988.31;1036587;28;20016;-67
2021/04/03 01:15:03;;;;;;;;;;;;;;;3.47;96.02;95991.50;1029830;28;19951;-65
2021/04/03 01:15:48;;;;;;;;;;;;;;;3.45;95.37;95985.72;1031748;28;19956;-66
2021/04/03 01:16:18;;;;;;;;;;;;;;;3.47;95.67;95991.50;1031449;28;20419;-66
2021/04/03 01:16:52;;;;;;;;;;;;;;;3.48;95.35;95989.69;1035810;28;19901;-67
2021/04/03 01:17:33;;;;;;;;;;;;;;;3.50;95.37;95985.09;1030107;28;19905;-67
2021/04/03 01:18:09;;;;;;;;;;;;;;;3.49;95.66;95992.09;1029257;28;19909;-66
2021/04/03 01:18:45;;;;;;;;;;;;;;;3.49;95.34;95994.69;1034577;28;20599;-66
2021/04/03 01:19:28;;;;;;;;;;;;;;;3.49;95.28;95997.28;1041379;28;19904;-67
2021/04/03 01:20:04;;;;;;;;;;;;;;;3.46;94.90;95995.09;1039369;28;19932;-67
2021/04/03 01:20:34;;;;;;;;;;;;;;;3.46;94.38;95997.69;1039920;28;19911;-66
2021/04/03 01:21:24;;;;;;;;;;;;;;;3.46;94.79;95999.50;1039617;28;20656;-66
2021/04/03 01:22:00;;;;;;;;;;;;;;;3.49;94.94;95999.09;1039483;28;19905;-66
2021/04/03 01:22:54;;;;;;;;;;;;;;;3.49;94.64;95993.91;1039345;28;20397;-66
2021/04/03 01:23:43;;;;;;;;;;;;;;;3.46;94.89;95996.91;1031272;28;19905;-65
2021/04/03 01:24:16;;;;;;;;;;;;;;;3.44;94.17;95991.91;1029083;28;19936;-66
2021/04/03 01:24:49;;;;;;;;;;;;;;;3.39;93.91;95993.56;1031325;28;19987;-67
2021/04/03 01:25:24;;;;;;;;;;;;;;;3.41;94.08;95996.72;1032171;28;19905;-67
2021/04/03 01:26:03;;;;;;;;;;;;;;;3.41;93.49;95994.94;1030174;28;19981;-66
2021/04/03 01:26:40;;;;;;;;;;;;;;;3.40;93.09;96001.13;1027282;28;19958;-67
2021/04/03 01:27:17;;;;;;;;;;;;;;;3.39;93.40;95998.75;1029643;28;19945;-66
2021/04/03 01:28:02;;;;;;;;;;;;;;;3.39;92.79;95991.78;1022998;28;20261;-67
2021/04/03 01:28:35;;;;;;;;;;;;;;;3.35;92.56;95997.56;1022461;28;19910;-64
2021/04/03 01:29:08;;;;;;;;;;;;;;;3.35;92.41;95998.34;1027304;28;20335;-66
2021/04/03 01:29:42;;;;;;;;;;;;;;;3.37;92.48;96005.94;1032779;28;19909;-66
2021/04/03 01:30:15;;;;;;;;;;;;;;;3.37;92.60;96001.53;1039225;28;19913;-66
2021/04/03 01:30:46;;;;;;;;;;;;;;;3.38;92.93;95997.94;1036826;28;20314;-66
2021/04/03 01:31:16;;;;;;;;;;;;;;;3.40;92.57;96000.34;1036111;28;19909;-65
2021/04/03 01:31:46;;;;;;;;;;;;;;;3.41;92.35;95994.13;1033806;28;19909;-67
2021/04/03 01:32:27;;;;;;;;;;;;;;;3.39;92.44;95998.75;1024170;28;19913;-67
2021/04/03 01:33:04;;;;;;;;;;;;;;;3.41;91.94;95994.13;1036289;28;19945;-67
2021/04/03 01:33:35;;;;;;;;;;;;;;;3.41;92.20;96001.91;1041772;28;19909;-65
2021/04/03 01:34:05;;;;;;;;;;;;;;;3.42;92.03;95999.13;1037052;28;19910;-66
2021/04/03 01:34:36;;;;;;;;;;;;;;;3.39;91.94;95994.38;1033700;28;20339;-67
2021/04/03 01:35:07;;;;;;;;;;;;;;;3.39;92.28;95993.56;1031581;28;20429;-66
2021/04/03 01:35:38;;;;;;;;;;;;;;;3.37;93.10;95995.56;1031579;28;20366;-67
2021/04/03 01:36:16;;;;;;;;;;;;;;;3.36;92.84;95999.97;1032440;28;19916;-67
2021/04/03 01:36:47;;;;;;;;;;;;;;;3.29;93.68;95994.03;1027247;28;19952;-66
2021/04/03 01:37:18;;;;;;;;;;;;;;;3.33;93.71;96002.97;1030379;28;19909;-66
2021/04/03 01:37:51;;;;;;;;;;;;;;;3.34;93.87;95994.19;1032951;28;19910;-66
2021/04/03 01:38:23;;;;;;;;;;;;;;;3.26;94.14;96002.22;1027183;28;20009;-67
2021/04/03 01:38:59;;;;;;;;;;;;;;;3.22;94.74;95993.25;1030756;28;20083;-66
2021/04/03 01:39:29;;;;;;;;;;;;;;;3.22;94.92;95998.44;1027019;28;20403;-67
2021/04/03 01:39:59;;;;;;;;;;;;;;;3.18;95.12;95992.09;1035081;28;19924;-67
2021/04/03 01:40:30;;;;;;;;;;;;;;;3.17;95.39;95996.50;1035675;28;20314;-66
2021/04/03 01:41:00;;;;;;;;;;;;;;;3.21;95.04;95995.06;1035282;28;19905;-66
2021/04/03 01:41:30;;;;;;;;;;;;;;;3.22;95.10;95999.25;1038526;28;19911;-67
2021/04/03 01:42:02;;;;;;;;;;;;;;;3.18;95.51;95992.09;1035651;28;19913;-67
2021/04/03 01:42:33;;;;;;;;;;;;;;;3.16;95.71;96001.91;1035386;28;20015;-66
2021/04/03 01:43:09;;;;;;;;;;;;;;;3.14;95.49;95996.13;1035438;28;19909;-65
2021/04/03 01:43:40;;;;;;;;;;;;;;;3.12;95.57;96004.13;1035422;28;20004;-66
2021/04/03 01:44:11;;;;;;;;;;;;;;;3.13;95.73;95994.53;1040159;28;19909;-66
2021/04/03 01:44:42;;;;;;;;;;;;;;;3.05;95.99;96003.34;1035382;28;19947;-66
2021/04/03 01:45:12;;;;;;;;;;;;;;;3.04;95.81;96002.53;1031407;28;20012;-67
2021/04/03 01:45:42;;;;;;;;;;;;;;;3.04;96.00;96002.53;1023292;29;19945;-66
2021/04/03 01:46:13;;;;;;;;;;;;;;;3.06;96.09;96000.56;1031228;28;19912;-66
2021/04/03 01:46:43;;;;;;;;;;;;;;;3.08;96.07;95997.75;1031273;28;19910;-66
2021/04/03 01:47:13;;;;;;;;;;;;;;;3.05;95.66;96001.56;1027438;28;20339;-65
2021/04/03 01:47:44;;;;;;;;;;;;;;;3.04;95.91;95996.56;1031297;28;19910;-67
2021/04/03 01:48:17;;;;;;;;;;;;;;;3.04;95.72;95999.94;1024681;28;19910;-65
2021/04/03 01:48:48;;;;;;;;;;;;;;;3.06;95.64;95987.59;1031804;28;20371;-66
2021/04/03 01:49:21;;;;;;;;;;;;;;;3.06;95.66;95990.19;1027669;28;19913;-66
2021/04/03 01:49:53;;;;;;;;;;;;;;;3.07;95.58;95996.16;1029286;28;19906;-67
2021/04/03 01:50:23;;;;;;;;;;;;;;;3.07;95.56;95996.94;1035428;28;19916;-66
2021/04/03 01:50:53;;;;;;;;;;;;;;;3.08;95.74;95997.75;1031819;28;19909;-66
2021/04/03 01:51:24;;;;;;;;;;;;;;;3.12;95.43;95992.94;1028239;28;19910;-67
2021/04/03 01:51:54;;;;;;;;;;;;;;;3.07;95.18;95996.94;1030834;28;19912;-66
2021/04/03 01:52:25;;;;;;;;;;;;;;;3.12;95.27;95995.53;1027133;28;20592;-67
2021/04/03 01:52:55;;;;;;;;;;;;;;;3.11;95.08;95996.53;1031477;28;19987;-66
2021/04/03 01:53:26;;;;;;;;;;;;;;;3.07;94.61;96002.13;1034259;28;19999;-67
2021/04/03 01:53:56;;;;;;;;;;;;;;;2.82;94.28;95952.06;1023232;29;20017;-67
2021/04/03 01:54:28;;;;;;;;;;;;;;;3.04;94.47;95999.94;1027628;28;19910;-66
2021/04/03 01:55:04;;;;;;;;;;;;;;;3.04;94.40;95996.56;1026864;28;20406;-66
2021/04/03 01:55:34;;;;;;;;;;;;;;;3.07;94.65;95996.94;1031699;28;19910;-66
2021/04/03 01:56:05;;;;;;;;;;;;;;;3.06;94.52;96000.56;1027247;28;20016;-66
2021/04/03 01:56:35;;;;;;;;;;;;;;;3.05;94.14;95988.59;1033199;28;20371;-66
2021/04/03 01:57:06;;;;;;;;;;;;;;;3.04;94.50;95992.19;1031708;28;20010;-66
2021/04/03 01:57:36;;;;;;;;;;;;;;;3.05;94.29;95992.97;1031369;28;19910;-66
2021/04/03 01:58:06;;;;;;;;;;;;;;;3.03;94.26;95995.78;1031392;28;19905;-67
2021/04/03 01:58:37;;;;;;;;;;;;;;;3.00;94.28;95993.59;1027114;28;20000;-66
2021/04/03 01:59:07;;;;;;;;;;;;;;;3.02;94.22;95998.59;1035235;28;19906;-67
2021/04/03 01:59:37;;;;;;;;;;;;;;;3.03;94.45;95989.81;1035488;28;19914;-66
2021/04/03 02:00:09;;;;;;;;;;;;;;;3.04;93.85;95997.34;1024099;28;20384;-66
2021/04/03 02:00:39;;;;;;;;;;;;;;;3.03;94.10;95980.22;1023287;29;20379;-66
2021/04/03 02:01:09;;;;;;;;;;;;;;;3.05;93.90;95998.97;1027333;28;19913;-66
2021/04/03 02:01:40;;;;;;;;;;;;;;;3.05;93.69;95986.00;1028097;28;19968;-65
2021/04/03 02:02:10;;;;;;;;;;;;;;;3.02;93.80;95989.00;1031172;28;19960;-66
2021/04/03 02:02:41;;;;;;;;;;;;;;;3.02;93.58;95993.41;1031556;28;20737;-66
2021/04/03 02:03:11;;;;;;;;;;;;;;;3.03;93.74;95989.81;1031060;28;19910;-66
2021/04/03 02:03:43;;;;;;;;;;;;;;;3.03;93.64;95984.63;1030790;28;19996;-66
2021/04/03 02:04:14;;;;;;;;;;;;;;;3.02;93.47;95991.59;1031104;28;19910;-66
2021/04/03 02:04:44;;;;;;;;;;;;;;;3.03;93.72;95993.19;1026969;28;19910;-66
2021/04/03 02:05:14;;;;;;;;;;;;;;;3.03;94.15;95995.78;1034073;28;20092;-66
2021/04/03 02:05:45;;;;;;;;;;;;;;;3.03;93.49;95985.41;1031306;28;19909;-67
2021/04/03 02:06:16;;;;;;;;;;;;;;;3.05;93.64;95988.59;1035448;28;19949;-66
2021/04/03 02:06:46;;;;;;;;;;;;;;;3.02;93.75;95993.41;1033745;28;19906;-66
2021/04/03 02:07:17;;;;;;;;;;;;;;;3.01;93.53;95990.00;1030005;28;19985;-66
2021/04/03 02:07:48;;;;;;;;;;;;;;;3.02;93.84;95989.00;1027332;28;19918;-66
2021/04/03 02:08:18;;;;;;;;;;;;;;;3.00;94.03;95996.19;1026412;28;19918;-63
2021/04/03 02:08:49;;;;;;;;;;;;;;;3.04;93.90;95994.78;1034614;28;20387;-66
2021/04/03 02:09:19;;;;;;;;;;;;;;;3.05;93.71;95993.78;1035253;28;19956;-66
2021/04/03 02:09:49;;;;;;;;;;;;;;;3.01;93.99;95995.19;1023123;28;19910;-65
2021/04/03 02:10:27;;;;;;;;;;;;;;;3.04;93.87;95997.34;1024627;28;19958;-66
2021/04/03 02:10:58;;;;;;;;;;;;;;;3.07;93.47;95991.75;1027162;28;19909;-66
2021/04/03 02:11:28;;;;;;;;;;;;;;;3.06;93.40;95990.19;1029037;28;19957;-66
2021/04/03 02:11:58;;;;;;;;;;;;;;;3.06;93.73;95990.19;1032524;28;19906;-66
2021/04/03 02:12:28;;;;;;;;;;;;;;;3.05;93.42;95983.41;1035316;28;19948;-67
2021/04/03 02:12:59;;;;;;;;;;;;;;;3.04;93.46;95993.97;1031243;28;19942;-66
2021/04/03 02:13:30;;;;;;;;;;;;;;;3.03;93.26;95993.19;1031422;28;19951;-66
2021/04/03 02:14:00;;;;;;;;;;;;;;;3.09;93.12;95988.97;1034487;28;19909;-66
2021/04/03 02:14:30;;;;;;;;;;;;;;;3.09;92.90;95980.41;1035671;28;19909;-66
2021/04/03 02:15:01;;;;;;;;;;;;;;;3.05;92.87;95983.41;1031269;28;20012;-66
2021/04/03 02:15:31;;;;;;;;;;;;;;;3.04;93.25;95979.22;1030680;28;19917;-67
2021/04/03 02:16:02;;;;;;;;;;;;;;;3.07;92.61;95975.41;1035501;28;19952;-66
2021/04/03 02:16:32;;;;;;;;;;;;;;;3.06;92.38;95985.00;1027230;28;20349;-67
2021/04/03 02:17:02;;;;;;;;;;;;;;;3.09;92.26;95977.81;1034202;28;20505;-66
2021/04/03 02:17:33;;;;;;;;;;;;;;;3.06;92.23;95982.41;1031242;28;19937;-66
2021/04/03 02:18:06;;;;;;;;;;;;;;;3.06;92.38;95979.81;1031234;28;19993;-66
2021/04/03 02:18:37;;;;;;;;;;;;;;;3.04;92.52;95983.59;1033929;28;20032;-65
2021/04/03 02:19:08;;;;;;;;;;;;;;;3.04;92.75;95986.19;1026694;28;19952;-66
2021/04/03 02:19:38;;;;;;;;;;;;;;;3.05;92.73;95985.19;1031556;28;19947;-66
2021/04/03 02:20:09;;;;;;;;;;;;;;;3.05;92.52;95980.00;1027399;28;19914;-66
2021/04/03 02:20:39;;;;;;;;;;;;;;;3.03;92.83;95985.41;1027141;28;19969;-66
2021/04/03 02:21:09;;;;;;;;;;;;;;;3.03;92.56;95985.41;1019162;29;19941;-66
2021/04/03 02:21:40;;;;;;;;;;;;;;;2.72;91.76;95931.00;1019595;28;19926;-67
2021/04/03 02:22:14;;;;;;;;;;;;;;;3.04;92.11;95992.19;1022888;28;19910;-67
2021/04/03 02:22:44;;;;;;;;;;;;;;;3.03;92.27;95985.41;1028076;28;20380;-66
2021/04/03 02:23:14;;;;;;;;;;;;;;;3.03;92.37;95982.81;1031613;28;19941;-67
2021/04/03 02:23:45;;;;;;;;;;;;;;;3.05;92.39;95978.22;1030361;28;19910;-67
2021/04/03 02:24:15;;;;;;;;;;;;;;;3.04;92.13;95981.00;1031572;28;19997;-66
2021/04/03 02:24:46;;;;;;;;;;;;;;;3.02;91.79;95980.44;1035314;28;20302;-67
2021/04/03 02:25:16;;;;;;;;;;;;;;;3.02;91.79;95988.22;1030982;28;19917;-66
2021/04/03 02:25:46;;;;;;;;;;;;;;;2.99;91.10;95989.44;1039420;28;19996;-66
2021/04/03 02:26:16;;;;;;;;;;;;;;;2.99;91.08;95986.84;1039342;28;20418;-66
2021/04/03 02:26:47;;;;;;;;;;;;;;;2.98;90.70;95987.81;1039312;28;19913;-66
2021/04/03 02:27:17;;;;;;;;;;;;;;;2.98;90.93;95987.81;1038747;28;19919;-66
2021/04/03 02:27:47;;;;;;;;;;;;;;;2.98;90.84;95992.22;1036383;28;19936;-67
2021/04/03 02:28:18;;;;;;;;;;;;;;;2.98;91.14;95987.81;1039076;28;19913;-66
2021/04/03 02:28:49;;;;;;;;;;;;;;;2.96;91.10;95992.44;1040980;28;19909;-65
2021/04/03 02:29:19;;;;;;;;;;;;;;;2.97;90.79;95988.84;1035115;28;19911;-67
2021/04/03 02:29:50;;;;;;;;;;;;;;;2.97;90.30;95991.41;1027180;28;19921;-66
2021/04/03 02:30:22;;;;;;;;;;;;;;;2.96;89.96;95989.84;1026832;28;20034;-67
2021/04/03 02:30:53;;;;;;;;;;;;;;;2.96;90.07;95995.03;1031718;28;20450;-66
2021/04/03 02:31:23;;;;;;;;;;;;;;;2.99;89.87;95994.63;1035924;28;20003;-66
2021/04/03 02:31:54;;;;;;;;;;;;;;;2.98;89.42;95998.19;1039353;28;20402;-67
2021/04/03 02:32:24;;;;;;;;;;;;;;;2.98;89.64;96002.56;1034984;28;19905;-67
2021/04/03 02:32:55;;;;;;;;;;;;;;;2.97;89.53;95991.41;1031322;28;19946;-66
2021/04/03 02:33:25;;;;;;;;;;;;;;;2.98;89.32;95997.41;1035162;28;20407;-67
2021/04/03 02:33:55;;;;;;;;;;;;;;;2.98;89.01;95993.00;1037611;28;19952;-66
2021/04/03 02:34:26;;;;;;;;;;;;;;;2.97;88.75;95991.41;1038987;28;19909;-67
2021/04/03 02:34:56;;;;;;;;;;;;;;;2.93;88.32;95987.66;1035172;28;20268;-67
2021/04/03 02:35:26;;;;;;;;;;;;;;;2.94;88.49;95989.25;1035219;28;19920;-67
2021/04/03 02:35:57;;;;;;;;;;;;;;;2.93;88.32;95987.66;1030581;28;19933;-67
2021/04/03 02:36:27;;;;;;;;;;;;;;;2.92;88.48;95988.69;1031293;28;19913;-67
2021/04/03 02:36:57;;;;;;;;;;;;;;;2.91;88.42;95984.47;1031175;28;19913;-67
2021/04/03 02:37:27;;;;;;;;;;;;;;;2.94;88.17;95989.25;1034608;28;20505;-66
2021/04/03 02:37:58;;;;;;;;;;;;;;;2.93;87.75;95994.66;1031311;28;19909;-67
2021/04/03 02:38:29;;;;;;;;;;;;;;;2.92;87.79;95993.03;1030441;28;19910;-66
2021/04/03 02:38:59;;;;;;;;;;;;;;;2.93;87.77;95987.66;1030678;28;19917;-66
2021/04/03 02:39:29;;;;;;;;;;;;;;;2.93;87.18;95984.28;1027301;28;20375;-67
2021/04/03 02:40:00;;;;;;;;;;;;;;;2.92;87.17;95988.69;1031082;28;19910;-67
2021/04/03 02:40:30;;;;;;;;;;;;;;;2.91;87.55;95992.25;1031093;28;20703;-66
2021/04/03 02:41:01;;;;;;;;;;;;;;;2.90;87.83;95979.50;1026717;28;19903;-67
2021/04/03 02:41:37;;;;;;;;;;;;;;;2.94;87.87;95983.28;1023104;28;20355;-66
2021/04/03 02:42:08;;;;;;;;;;;;;;;2.95;87.62;95988.25;1024429;28;19910;-67
2021/04/03 02:42:40;;;;;;;;;;;;;;;2.92;87.62;95983.50;1027180;28;19926;-67
2021/04/03 02:43:28;;;;;;;;;;;;;;;2.91;87.55;95987.06;1036437;28;19963;-67
2021/04/03 02:44:28;;;;;;;;;;;;;;;2.89;87.73;95981.31;1034942;28;20000;-67
2021/04/03 02:45:02;;;;;;;;;;;;;;;2.92;87.22;95985.25;1019133;29;19922;-67
2021/04/03 02:45:33;;;;;;;;;;;;;;;2.91;87.06;95987.06;1031300;28;19901;-67
2021/04/03 02:46:18;;;;;;;;;;;;;;;2.91;86.82;95987.06;1031268;28;19996;-67
2021/04/03 02:46:50;;;;;;;;;;;;;;;2.90;87.13;95989.88;1031081;28;19910;-67
2021/04/03 02:47:22;;;;;;;;;;;;;;;2.89;87.45;95985.72;1026627;28;19918;-67
2021/04/03 02:47:57;;;;;;;;;;;;;;;2.89;87.00;95989.09;1032346;28;19917;-67